Time;durP1;ratioP1;P1;durP2;ratioP2;P2;SDS_P1;SDS_P2;PMS_P1;PMS_P2;Temp;Humidity;BMP_temperature;BMP_pressure;BME280_temperature;BME280_humidity;BME280_pressure;Samples;Min_cycle;Max_cycle;Signal;HPM_P1;HPM_P2
2023/07/05 00:02:10;;;;;;;7.90;2.78;;;21.20;91.90;;;;;;5081363;28;45338;-67
2023/07/05 00:04:37;;;;;;;7.20;2.20;;;21.20;92.40;;;;;;5076141;28;45352;-67
2023/07/05 00:07:04;;;;;;;10.35;2.50;;;21.20;92.90;;;;;;5076593;28;45457;-68
2023/07/05 00:09:30;;;;;;;4.90;2.35;;;21.10;94.50;;;;;;5081481;28;45331;-67
2023/07/05 00:12:29;;;;;;;6.85;2.40;;;21.10;94.50;;;;;;5087329;28;45312;-79
2023/07/05 05:24:19;;;;;;;2.08;1.13;;;22.50;78.00;;;;;;5085960;27;45328;-75
2023/07/05 05:26:47;;;;;;;1.30;0.82;;;22.50;78.20;;;;;;5094408;27;45354;-76
2023/07/05 05:29:14;;;;;;;1.23;1.00;;;22.50;78.00;;;;;;5083743;28;45106;-75
2023/07/05 05:31:41;;;;;;;1.55;1.10;;;22.50;77.90;;;;;;5081828;28;46636;-75
2023/07/05 05:34:08;;;;;;;2.03;1.10;;;22.50;77.90;;;;;;5086368;27;45225;-76
2023/07/05 05:36:34;;;;;;;2.20;1.20;;;22.50;77.80;;;;;;5093721;27;45437;-76
2023/07/05 05:39:01;;;;;;;1.70;1.20;;;22.50;77.70;;;;;;5097104;27;45557;-77
2023/07/05 05:41:29;;;;;;;1.30;1.10;;;22.50;77.60;;;;;;5087523;28;46501;-77
2023/07/05 05:43:56;;;;;;;1.83;1.40;;;22.50;77.50;;;;;;5087783;28;45435;-78
2023/07/05 05:46:23;;;;;;;2.20;1.35;;;22.50;77.40;;;;;;5087917;28;45158;-78
2023/07/05 05:48:50;;;;;;;1.77;1.30;;;22.50;78.30;;;;;;5088044;28;45227;-79
2023/07/05 05:51:17;;;;;;;1.65;1.38;;;22.50;77.20;;;;;;5086137;28;47297;-74
2023/07/05 05:53:43;;;;;;;2.63;1.20;;;22.50;77.10;;;;;;5090820;27;45908;-75
2023/07/05 05:56:11;;;;;;;1.70;0.90;;;22.50;77.00;;;;;;5094143;27;45352;-75
2023/07/05 05:58:39;;;;;;;1.90;1.15;;;22.50;76.90;;;;;;5093118;27;45480;-75
2023/07/05 06:01:06;;;;;;;2.75;1.33;;;22.50;76.80;;;;;;5086258;27;48049;-76
2023/07/05 06:03:33;;;;;;;1.90;1.20;;;22.50;76.70;;;;;;5086463;28;45257;-76
2023/07/05 06:06:00;;;;;;;5.18;1.38;;;22.50;76.70;;;;;;5086849;28;45067;-77
2023/07/05 06:08:28;;;;;;;2.40;1.27;;;22.50;76.60;;;;;;5087413;28;45048;-77
2023/07/05 06:10:55;;;;;;;2.65;1.35;;;22.50;76.60;;;;;;5087064;28;46286;-78
2023/07/05 06:13:22;;;;;;;1.80;1.33;;;22.50;76.60;;;;;;5087338;28;45197;-78
2023/07/05 06:15:55;;;;;;;2.58;1.30;;;22.50;76.60;;;;;;5087566;28;45348;-79
2023/07/05 06:18:24;;;;;;;1.75;1.13;;;22.50;76.40;;;;;;5087491;28;45179;-79
2023/07/05 06:21:03;;;;;;;2.53;1.50;;;22.50;76.30;;;;;;5086882;28;47390;-80
2023/07/05 06:23:36;;;;;;;2.08;1.30;;;22.50;76.30;;;;;;5086613;28;45879;-79
2023/07/05 06:26:05;;;;;;;1.38;1.08;;;22.50;76.10;;;;;;5087250;28;45343;-81
2023/07/05 06:38:39;;;;;;;1.30;0.90;;;22.50;76.10;;;;;;5022829;28;45407;-74
2023/07/05 06:41:06;;;;;;;1.75;1.02;;;22.50;75.90;;;;;;5023310;28;45503;-75
2023/07/05 06:43:33;;;;;;;2.10;1.20;;;22.50;75.60;;;;;;5077673;28;48596;-74
2023/07/05 06:45:59;;;;;;;0.95;0.85;;;22.50;75.60;;;;;;5085381;28;45556;-74
2023/07/05 06:48:26;;;;;;;3.47;1.10;;;22.50;75.40;;;;;;5085875;28;45350;-75
2023/07/05 06:50:54;;;;;;;3.30;1.15;;;22.50;75.20;;;;;;5094797;27;45478;-74
2023/07/05 06:53:22;;;;;;;1.13;1.00;;;22.50;74.80;;;;;;5085404;28;47072;-74
2023/07/05 06:55:51;;;;;;;1.92;1.00;;;22.60;74.90;;;;;;5085102;28;45344;-75
2023/07/05 06:58:20;;;;;;;1.20;1.02;;;22.60;74.90;;;;;;5085439;28;45242;-75
2023/07/05 07:00:47;;;;;;;1.58;1.13;;;22.60;74.90;;;;;;5085345;28;45184;-75
2023/07/05 07:03:14;;;;;;;1.90;1.20;;;22.60;74.60;;;;;;5076272;28;45214;-74
2023/07/05 07:05:41;;;;;;;1.50;1.15;;;22.60;74.20;;;;;;5084519;28;46248;-74
2023/07/05 07:08:08;;;;;;;1.45;1.00;;;22.60;74.50;;;;;;5085183;28;45418;-74
2023/07/05 07:10:36;;;;;;;1.27;1.00;;;22.60;74.30;;;;;;5085649;28;45192;-75
2023/07/05 07:13:05;;;;;;;1.38;1.10;;;22.60;74.00;;;;;;5085036;27;45724;-74
2023/07/05 07:15:32;;;;;;;1.70;0.90;;;22.60;73.90;;;;;;5079784;28;45407;-75
2023/07/05 07:17:59;;;;;;;1.35;1.00;;;22.60;74.10;;;;;;5085576;27;45268;-77
2023/07/05 07:20:26;;;;;;;2.58;1.13;;;22.60;74.00;;;;;;5085805;28;45193;-77
2023/07/05 07:22:53;;;;;;;1.45;1.20;;;22.60;73.90;;;;;;5085962;28;47558;-77
2023/07/05 07:25:20;;;;;;;1.80;1.10;;;22.60;73.80;;;;;;5086009;28;45254;-77
2023/07/05 07:27:47;;;;;;;1.65;1.10;;;22.60;73.70;;;;;;5086374;28;45419;-78
2023/07/05 07:30:20;;;;;;;1.98;1.08;;;22.60;73.60;;;;;;5086103;28;45288;-79
2023/07/05 07:32:50;;;;;;;1.40;0.90;;;22.60;73.70;;;;;;5085942;28;46755;-80
2023/07/05 07:35:17;;;;;;;1.38;1.10;;;22.60;73.50;;;;;;5085662;28;45228;-79
2023/07/05 07:37:48;;;;;;;1.75;0.95;;;22.60;73.70;;;;;;5086155;28;45139;-80
2023/07/05 07:47:10;;;;;;;3.40;1.20;;;23.80;74.00;;;;;;4976338;28;45382;-75
2023/07/05 07:49:37;;;;;;;2.15;0.90;;;22.40;72.20;;;;;;5083707;28;45256;-74
2023/07/05 07:52:04;;;;;;;1.85;0.90;;;22.40;71.20;;;;;;5089156;27;45565;-75
2023/07/05 07:54:31;;;;;;;3.80;1.10;;;22.40;70.90;;;;;;5084045;27;45475;-75
2023/07/05 07:56:58;;;;;;;3.55;1.23;;;22.40;70.00;;;;;;5084288;27;45382;-74
2023/07/05 07:59:25;;;;;;;1.35;0.93;;;22.30;69.30;;;;;;5084078;28;45371;-74
2023/07/05 08:01:53;;;;;;;2.83;0.88;;;22.30;68.50;;;;;;5082079;28;45302;-75
2023/07/05 08:04:21;;;;;;;3.72;0.90;;;22.30;68.00;;;;;;5088122;27;45565;-75
2023/07/05 08:06:51;;;;;;;2.85;0.98;;;22.20;67.40;;;;;;5105160;27;45198;-76
2023/07/05 08:09:21;;;;;;;3.70;0.85;;;22.20;66.90;;;;;;5077334;28;45487;-75
2023/07/05 08:11:48;;;;;;;1.92;0.90;;;22.20;68.00;;;;;;5085398;28;45553;-76
2023/07/05 08:14:17;;;;;;;5.22;1.02;;;22.30;68.20;;;;;;5084451;28;46505;-74
2023/07/05 08:16:45;;;;;;;2.20;0.88;;;22.30;67.90;;;;;;5084751;27;45844;-74
2023/07/05 08:19:12;;;;;;;1.77;0.90;;;22.40;68.00;;;;;;5086292;27;45301;-75
2023/07/05 08:21:43;;;;;;;1.50;0.98;;;22.40;68.20;;;;;;5083053;28;45570;-76
2023/07/05 08:24:10;;;;;;;2.03;0.82;;;22.40;68.40;;;;;;5087188;28;47503;-72
2023/07/05 08:26:37;;;;;;;0.77;0.60;;;22.40;67.90;;;;;;5084086;28;46542;-73
2023/07/05 08:29:03;;;;;;;1.65;0.90;;;22.40;68.40;;;;;;5079092;28;45202;-73
2023/07/05 08:31:31;;;;;;;2.13;0.80;;;22.50;68.50;;;;;;5086950;28;45131;-73
2023/07/05 08:33:58;;;;;;;1.98;0.95;;;22.50;68.50;;;;;;5085139;28;47709;-73
2023/07/05 08:36:34;;;;;;;1.52;0.90;;;22.40;68.70;;;;;;5082446;28;45312;-72
2023/07/05 08:39:05;;;;;;;3.35;0.93;;;22.50;68.80;;;;;;5077486;28;45359;-70
2023/07/05 08:41:42;;;;;;;1.58;0.73;;;22.50;68.90;;;;;;5082760;28;45490;-71
2023/07/05 08:44:21;;;;;;;2.28;0.80;;;22.50;68.90;;;;;;5079797;28;46240;-71
2023/07/05 08:46:52;;;;;;;1.60;0.90;;;22.50;69.90;;;;;;5079604;28;45283;-70
2023/07/05 08:49:23;;;;;;;1.55;0.63;;;22.50;69.10;;;;;;5073177;28;45584;-70
2023/07/05 08:51:51;;;;;;;1.63;0.70;;;22.50;70.10;;;;;;5077781;28;45369;-71
2023/07/05 08:54:20;;;;;;;3.30;0.88;;;22.50;69.10;;;;;;5082328;28;48549;-70
2023/07/05 08:56:50;;;;;;;5.20;0.70;;;22.50;69.10;;;;;;5064563;28;45476;-73
2023/07/05 08:59:24;;;;;;;2.03;0.70;;;22.50;69.20;;;;;;5080571;28;45381;-72
2023/07/05 09:01:55;;;;;;;2.17;0.70;;;22.50;69.10;;;;;;5078416;27;45390;-72
2023/07/05 09:04:25;;;;;;;2.70;0.65;;;22.50;69.20;;;;;;5100266;27;47281;-72
2023/07/05 09:06:57;;;;;;;2.15;0.90;;;22.50;69.20;;;;;;5086075;28;46021;-73
2023/07/05 09:09:55;;;;;;;1.90;1.10;;;22.50;69.20;;;;;;5084861;27;45221;-72
2023/07/05 09:12:26;;;;;;;4.53;0.80;;;22.50;69.10;;;;;;5087588;27;45537;-73
2023/07/05 09:15:03;;;;;;;1.48;0.73;;;22.50;69.10;;;;;;5082531;28;46578;-73
2023/07/05 09:17:39;;;;;;;1.58;0.70;;;22.50;69.20;;;;;;5083318;28;45300;-73
2023/07/05 09:20:20;;;;;;;6.30;1.10;;;22.50;69.20;;;;;;5085703;28;45308;-73
2023/07/05 09:22:48;;;;;;;3.35;0.80;;;22.50;69.20;;;;;;5077386;28;45512;-73
2023/07/05 09:25:19;;;;;;;4.07;1.08;;;22.50;69.30;;;;;;5088548;27;47502;-73
2023/07/05 09:27:50;;;;;;;2.88;0.80;;;22.50;69.30;;;;;;5085027;27;45351;-73
2023/07/05 09:30:24;;;;;;;2.38;0.70;;;22.50;69.40;;;;;;5077234;28;45538;-73
2023/07/05 09:33:08;;;;;;;2.00;0.80;;;22.50;69.40;;;;;;5085898;28;45269;-74
2023/07/05 09:35:37;;;;;;;2.00;0.88;;;22.50;69.40;;;;;;5084865;27;45759;-73
2023/07/05 09:38:21;;;;;;;3.20;0.82;;;22.50;69.30;;;;;;5084166;28;45453;-73
2023/07/05 09:40:55;;;;;;;1.75;0.63;;;22.50;69.30;;;;;;5085829;28;45670;-73
2023/07/05 09:43:29;;;;;;;3.40;1.00;;;22.50;69.30;;;;;;5078092;28;45312;-74
2023/07/05 09:45:56;;;;;;;2.00;0.82;;;22.50;69.20;;;;;;5085098;28;47928;-73
2023/07/05 09:48:23;;;;;;;5.75;0.75;;;22.50;69.30;;;;;;5085699;28;45291;-73
2023/07/05 09:50:52;;;;;;;2.35;0.88;;;22.50;69.30;;;;;;5084998;28;45391;-73
2023/07/05 09:53:34;;;;;;;1.90;1.00;;;22.50;69.30;;;;;;5080272;28;45424;-73
2023/07/05 09:56:05;;;;;;;3.28;1.15;;;22.50;69.10;;;;;;5093644;27;46457;-73
2023/07/05 09:58:33;;;;;;;1.60;0.52;;;22.50;69.30;;;;;;5085408;28;45466;-73
2023/07/05 10:01:02;;;;;;;4.20;1.15;;;22.50;69.10;;;;;;5085037;28;45466;-73
2023/07/05 10:03:35;;;;;;;2.25;0.80;;;22.50;69.10;;;;;;5084757;28;45383;-73
2023/07/05 10:06:07;;;;;;;3.05;0.80;;;22.50;69.10;;;;;;5085319;28;47668;-73
2023/07/05 10:08:42;;;;;;;2.65;0.90;;;22.50;68.90;;;;;;5085216;28;45481;-73
2023/07/05 10:11:20;;;;;;;3.88;0.80;;;22.50;69.00;;;;;;5085386;28;45201;-73
2023/07/05 10:13:48;;;;;;;4.05;0.90;;;22.50;68.80;;;;;;5085771;28;45337;-73
2023/07/05 10:16:16;;;;;;;2.78;0.70;;;22.50;68.90;;;;;;5084725;28;45244;-73
2023/07/05 10:18:43;;;;;;;5.15;0.88;;;22.50;68.90;;;;;;5084403;28;45331;-73
2023/07/05 10:21:19;;;;;;;2.90;0.88;;;22.50;68.80;;;;;;5084900;28;45391;-73
2023/07/05 10:23:46;;;;;;;1.00;0.63;;;22.50;68.80;;;;;;5085316;28;45538;-74
2023/07/05 10:26:18;;;;;;;2.95;0.73;;;22.50;68.90;;;;;;5084117;28;47724;-73
2023/07/05 10:28:46;;;;;;;3.85;0.95;;;22.50;68.70;;;;;;5084436;28;45648;-73
2023/07/05 10:31:27;;;;;;;1.65;0.70;;;22.50;68.70;;;;;;5084824;28;45364;-74
2023/07/05 10:34:05;;;;;;;4.22;1.42;;;22.50;68.50;;;;;;5079301;27;45417;-73
2023/07/05 10:36:32;;;;;;;2.40;0.85;;;22.50;68.50;;;;;;5084493;28;48370;-73
2023/07/05 10:39:00;;;;;;;1.27;0.73;;;22.50;68.60;;;;;;5083389;28;45343;-73
2023/07/05 10:41:33;;;;;;;2.45;0.80;;;22.50;68.50;;;;;;5084647;28;45489;-73
2023/07/05 10:44:03;;;;;;;3.63;0.68;;;22.50;68.40;;;;;;5084438;28;45328;-73
2023/07/05 10:46:32;;;;;;;4.53;1.00;;;22.50;68.20;;;;;;5083119;27;46577;-73
2023/07/05 10:48:59;;;;;;;3.63;0.85;;;22.50;68.20;;;;;;5083985;28;45226;-73
2023/07/05 10:51:34;;;;;;;3.55;0.90;;;22.50;68.00;;;;;;5084585;28;45305;-73
2023/07/05 10:54:05;;;;;;;2.45;0.90;;;22.50;68.00;;;;;;5084481;28;45210;-73
2023/07/05 10:56:36;;;;;;;3.13;0.80;;;22.60;67.80;;;;;;5084292;28;45319;-73
2023/07/05 10:59:12;;;;;;;2.15;1.00;;;22.50;67.80;;;;;;5084287;28;45327;-73
2023/07/05 11:01:42;;;;;;;4.45;0.90;;;22.50;67.70;;;;;;5084159;28;45364;-73
2023/07/05 11:04:13;;;;;;;3.25;0.82;;;22.50;67.60;;;;;;5082863;27;45540;-73
2023/07/05 11:06:43;;;;;;;3.65;0.60;;;22.50;67.60;;;;;;5084870;27;46472;-73
2023/07/05 11:09:10;;;;;;;3.05;0.93;;;22.50;67.50;;;;;;5083898;28;45268;-73
2023/07/05 11:11:43;;;;;;;3.92;0.90;;;22.60;67.50;;;;;;5084423;28;45391;-73
2023/07/05 11:14:14;;;;;;;3.97;0.82;;;22.60;67.30;;;;;;5083490;28;45191;-73
2023/07/05 11:16:43;;;;;;;0.90;0.65;;;22.60;67.30;;;;;;5083531;28;47137;-73
2023/07/05 11:19:13;;;;;;;3.83;0.88;;;22.60;67.30;;;;;;5086420;27;45326;-73
2023/07/05 11:21:44;;;;;;;5.05;1.05;;;22.60;67.20;;;;;;5084474;28;45267;-73
2023/07/05 11:24:11;;;;;;;2.50;0.85;;;22.60;67.10;;;;;;5096684;27;45404;-73
2023/07/05 11:26:42;;;;;;;3.35;0.88;;;22.60;67.10;;;;;;5079935;27;48380;-73
2023/07/05 11:29:51;;;;;;;1.73;0.80;;;22.60;67.00;;;;;;5084949;27;45282;-73
2023/07/05 11:32:19;;;;;;;5.55;0.90;;;22.60;66.90;;;;;;5081756;28;45490;-73
2023/07/05 11:34:51;;;;;;;5.32;0.60;;;22.60;67.00;;;;;;5082216;27;45460;-72
2023/07/05 11:37:42;;;;;;;6.18;1.05;;;22.60;66.90;;;;;;5075474;28;47497;-73
2023/07/05 11:41:01;;;;;;;4.20;1.00;;;22.60;66.70;;;;;;5083184;27;45341;-73
2023/07/05 11:43:40;;;;;;;4.20;1.10;;;22.60;66.80;;;;;;5083942;28;45892;-73
2023/07/05 11:46:37;;;;;;;2.72;0.75;;;22.60;66.70;;;;;;5082129;28;45316;-73
2023/07/05 11:49:16;;;;;;;3.95;0.77;;;22.60;66.40;;;;;;5080259;28;47730;-73
2023/07/05 11:51:43;;;;;;;1.38;0.70;;;22.60;66.40;;;;;;5085448;27;45405;-73
2023/07/05 11:54:11;;;;;;;3.88;0.82;;;22.60;66.30;;;;;;5086266;28;45422;-73
2023/07/05 11:56:40;;;;;;;1.77;0.70;;;22.60;66.20;;;;;;5090231;27;45420;-74
2023/07/05 11:59:11;;;;;;;1.73;0.60;;;22.60;66.10;;;;;;5086833;28;48701;-73
2023/07/05 12:01:39;;;;;;;2.13;0.82;;;22.60;66.00;;;;;;5086237;28;45310;-74
2023/07/05 12:04:11;;;;;;;3.13;0.77;;;22.60;65.90;;;;;;5087635;28;45426;-73
2023/07/05 12:06:41;;;;;;;2.92;0.70;;;22.60;66.00;;;;;;5084722;27;45370;-74
2023/07/05 12:09:15;;;;;;;2.67;0.85;;;22.60;66.00;;;;;;5087955;27;46524;-73
2023/07/05 12:11:43;;;;;;;2.80;0.60;;;22.60;66.10;;;;;;5087094;28;46095;-73
2023/07/05 12:14:14;;;;;;;2.75;0.82;;;22.60;66.10;;;;;;5086457;28;45424;-74
2023/07/05 12:16:41;;;;;;;2.58;0.50;;;22.60;66.10;;;;;;5087348;28;45352;-74
2023/07/05 12:19:16;;;;;;;4.10;1.00;;;22.60;66.20;;;;;;5087487;27;45304;-73
2023/07/05 12:21:56;;;;;;;0.90;0.50;;;22.60;66.20;;;;;;5087275;28;45354;-73
2023/07/05 12:24:22;;;;;;;3.60;0.65;;;22.60;66.30;;;;;;5084227;27;45384;-73
2023/07/05 12:26:50;;;;;;;2.28;0.98;;;22.60;66.30;;;;;;5087100;28;45376;-74
2023/07/05 12:29:23;;;;;;;1.80;0.80;;;22.60;66.30;;;;;;5083836;27;47335;-73
2023/07/05 12:32:03;;;;;;;1.45;0.60;;;22.60;66.30;;;;;;5086805;28;45376;-73
2023/07/05 12:34:30;;;;;;;1.60;0.70;;;22.60;66.30;;;;;;5080230;28;45493;-73
2023/07/05 12:36:58;;;;;;;2.83;0.80;;;22.60;66.30;;;;;;5084716;28;45535;-73
2023/07/05 12:39:26;;;;;;;4.78;0.70;;;22.60;66.40;;;;;;5088607;27;46572;-73
2023/07/05 12:42:01;;;;;;;2.47;0.80;;;22.60;66.30;;;;;;5087104;27;45374;-73
2023/07/05 12:44:30;;;;;;;2.08;0.80;;;22.60;66.20;;;;;;5084179;27;45341;-73
2023/07/05 12:47:11;;;;;;;3.58;0.70;;;22.60;66.30;;;;;;5106805;27;45455;-73
2023/07/05 12:49:38;;;;;;;1.08;0.63;;;22.60;66.30;;;;;;5083413;28;47355;-73
2023/07/05 12:52:05;;;;;;;2.88;0.60;;;22.60;66.30;;;;;;5084218;28;45656;-73
2023/07/05 12:54:32;;;;;;;1.95;0.60;;;22.70;66.40;;;;;;5086599;28;45513;-73
2023/07/05 12:56:59;;;;;;;2.80;0.73;;;22.60;66.40;;;;;;5086019;28;45380;-73
2023/07/05 12:59:32;;;;;;;2.53;0.70;;;22.70;66.40;;;;;;5085389;28;46124;-73
2023/07/05 13:02:02;;;;;;;1.17;0.70;;;22.70;66.50;;;;;;5084072;28;45419;-73
2023/07/05 13:04:30;;;;;;;2.45;0.75;;;22.70;66.60;;;;;;5086383;28;45279;-73
2023/07/05 13:06:57;;;;;;;2.65;0.73;;;22.70;66.60;;;;;;5086253;28;45305;-74
2023/07/05 13:09:29;;;;;;;1.38;0.80;;;22.70;67.70;;;;;;5078339;28;47202;-73
2023/07/05 13:11:58;;;;;;;1.58;0.80;;;22.70;66.70;;;;;;5088741;27;45325;-73
2023/07/05 13:14:28;;;;;;;1.67;0.68;;;22.70;66.70;;;;;;5084674;27;45454;-73
2023/07/05 13:16:58;;;;;;;3.47;0.80;;;22.70;66.80;;;;;;5089425;27;45486;-73
2023/07/05 13:19:39;;;;;;;4.47;0.88;;;22.70;66.80;;;;;;5082034;27;46277;-73
2023/07/05 13:22:21;;;;;;;1.73;0.80;;;22.70;66.80;;;;;;5082218;27;45414;-73
2023/07/05 13:24:49;;;;;;;0.95;0.70;;;22.70;66.90;;;;;;5076303;27;45214;-73
2023/07/05 13:27:20;;;;;;;2.15;0.95;;;22.70;67.10;;;;;;5084804;27;45733;-73
2023/07/05 13:29:48;;;;;;;1.85;0.90;;;22.70;67.30;;;;;;5092978;27;47506;-73
2023/07/05 13:32:28;;;;;;;1.65;0.88;;;22.70;67.50;;;;;;5080652;27;45351;-73
2023/07/05 13:34:55;;;;;;;1.42;0.90;;;22.70;67.60;;;;;;5085754;28;45348;-73
2023/07/05 13:37:27;;;;;;;3.60;1.02;;;22.70;67.80;;;;;;5085823;28;45459;-73
2023/07/05 13:39:56;;;;;;;1.20;0.65;;;22.70;67.80;;;;;;5085086;28;47642;-73
2023/07/05 13:42:23;;;;;;;3.15;0.80;;;22.70;68.00;;;;;;5082589;28;45168;-73
2023/07/05 13:44:50;;;;;;;3.75;0.70;;;22.70;68.10;;;;;;5085642;28;45205;-73
2023/07/05 13:47:17;;;;;;;1.67;0.80;;;22.70;68.20;;;;;;5084503;28;45278;-73
2023/07/05 13:49:46;;;;;;;1.45;0.70;;;22.70;68.60;;;;;;5085280;27;48029;-73
2023/07/05 13:52:16;;;;;;;1.25;0.80;;;22.70;68.70;;;;;;5092472;27;45391;-73
2023/07/05 13:54:45;;;;;;;1.30;0.73;;;22.60;68.90;;;;;;5085390;28;45297;-74
2023/07/05 13:57:16;;;;;;;1.48;0.90;;;22.60;68.90;;;;;;5084243;28;45597;-70
2023/07/05 13:59:43;;;;;;;0.90;0.60;;;22.60;69.10;;;;;;5081613;28;45451;-70
2023/07/05 14:02:27;;;;;;;1.52;0.80;;;22.70;69.40;;;;;;5081976;27;45278;-70
2023/07/05 14:04:56;;;;;;;1.35;0.80;;;22.70;69.70;;;;;;5079909;28;45300;-70
2023/07/05 14:07:24;;;;;;;1.77;0.73;;;22.70;69.80;;;;;;5075662;28;45333;-70
2023/07/05 14:09:51;;;;;;;2.35;1.05;;;22.60;69.70;;;;;;5081688;28;45353;-70
2023/07/05 14:12:20;;;;;;;1.35;0.70;;;22.60;70.00;;;;;;5081228;28;45428;-70
2023/07/05 14:14:47;;;;;;;1.33;0.73;;;22.70;70.20;;;;;;5079833;28;45291;-71
2023/07/05 14:17:16;;;;;;;1.48;0.82;;;22.60;70.20;;;;;;5081308;28;45561;-71
2023/07/05 14:19:43;;;;;;;0.47;0.47;;;22.70;70.40;;;;;;5075256;27;46756;-70
2023/07/05 14:22:16;;;;;;;2.17;0.80;;;22.60;70.50;;;;;;5083389;27;45363;-70
2023/07/05 14:24:43;;;;;;;1.38;0.80;;;22.70;70.80;;;;;;5082157;28;45321;-70
2023/07/05 14:27:17;;;;;;;1.27;0.88;;;22.60;70.70;;;;;;5075363;27;45459;-72
2023/07/05 14:29:44;;;;;;;0.60;0.60;;;22.60;71.00;;;;;;5074946;27;46488;-70
2023/07/05 14:32:12;;;;;;;0.93;0.70;;;22.60;71.00;;;;;;5081407;27;45373;-72
2023/07/05 14:34:39;;;;;;;0.63;0.50;;;22.60;71.00;;;;;;5076343;28;45272;-72
2023/07/05 14:37:06;;;;;;;1.35;0.60;;;22.60;71.30;;;;;;5082567;28;45313;-72
2023/07/05 14:39:35;;;;;;;1.73;0.80;;;22.60;71.30;;;;;;5083865;28;47679;-72
2023/07/05 14:42:02;;;;;;;1.83;0.70;;;22.60;71.50;;;;;;5081706;28;45410;-72
2023/07/05 14:44:29;;;;;;;4.57;0.80;;;22.60;71.60;;;;;;5089253;27;45288;-72
2023/07/05 14:46:55;;;;;;;3.67;0.82;;;22.60;71.70;;;;;;5088456;27;45526;-73
2023/07/05 14:49:23;;;;;;;1.33;0.57;;;22.60;71.70;;;;;;5084920;28;47226;-73
2023/07/05 14:51:50;;;;;;;0.95;0.50;;;22.60;71.70;;;;;;5084959;28;45368;-73
2023/07/05 14:54:17;;;;;;;2.53;0.90;;;22.60;71.90;;;;;;5084658;27;45514;-73
2023/07/05 14:56:45;;;;;;;0.65;0.57;;;22.60;71.90;;;;;;5083365;28;45227;-73
2023/07/05 14:59:12;;;;;;;0.93;0.60;;;22.60;73.00;;;;;;5091952;27;46218;-73
2023/07/05 15:01:38;;;;;;;1.88;0.80;;;22.60;72.10;;;;;;5083979;28;45346;-73
2023/07/05 15:04:05;;;;;;;1.33;0.73;;;22.60;72.20;;;;;;5084591;28;45345;-73
2023/07/05 15:06:32;;;;;;;1.05;0.60;;;22.60;72.20;;;;;;5085104;28;45530;-73
2023/07/05 15:08:59;;;;;;;1.25;0.70;;;22.70;72.20;;;;;;5084158;28;46636;-73
2023/07/05 15:11:27;;;;;;;1.35;0.70;;;22.70;72.20;;;;;;5084701;28;45478;-73
2023/07/05 15:13:55;;;;;;;0.85;0.68;;;22.70;72.20;;;;;;5095765;27;45344;-73
2023/07/05 15:16:22;;;;;;;2.00;0.95;;;22.70;72.20;;;;;;5081008;28;45199;-73
2023/07/05 15:18:49;;;;;;;1.63;0.80;;;22.70;72.10;;;;;;5086537;27;48642;-73
2023/07/05 15:21:18;;;;;;;0.70;0.55;;;22.70;72.10;;;;;;5093524;27;45218;-73
2023/07/05 15:23:47;;;;;;;1.75;1.00;;;22.70;72.00;;;;;;5084202;28;45454;-73
2023/07/05 15:26:14;;;;;;;0.88;0.60;;;22.70;72.00;;;;;;5094929;27;45464;-73
2023/07/05 15:28:41;;;;;;;0.85;0.55;;;22.70;72.00;;;;;;5087225;28;46750;-74
2023/07/05 15:31:10;;;;;;;0.75;0.60;;;22.70;72.00;;;;;;5087462;27;45558;-73
2023/07/05 15:33:36;;;;;;;0.85;0.60;;;22.70;71.90;;;;;;5087338;28;45399;-73
2023/07/05 15:36:04;;;;;;;1.58;1.00;;;22.70;71.90;;;;;;5087836;28;45440;-73
2023/07/05 15:38:30;;;;;;;1.88;0.70;;;22.70;72.00;;;;;;5087474;28;48542;-73
2023/07/05 15:41:02;;;;;;;0.77;0.73;;;22.70;72.00;;;;;;5087511;28;45783;-73
2023/07/05 15:43:29;;;;;;;1.98;0.70;;;22.70;72.00;;;;;;5085170;27;45246;-73
2023/07/05 15:45:56;;;;;;;1.65;0.88;;;22.70;72.00;;;;;;5089347;27;45192;-73
2023/07/05 15:48:25;;;;;;;0.73;0.63;;;22.70;71.90;;;;;;5086944;28;46793;-73
2023/07/05 15:50:53;;;;;;;1.20;0.63;;;22.70;71.90;;;;;;5087255;28;45391;-73
2023/07/05 15:53:20;;;;;;;1.35;0.60;;;22.70;71.90;;;;;;5090189;27;45270;-73
2023/07/05 15:55:47;;;;;;;0.55;0.55;;;22.70;71.70;;;;;;5092963;27;45443;-74
2023/07/05 15:58:21;;;;;;;2.63;1.20;;;22.70;71.60;;;;;;5083774;28;47253;-70
2023/07/05 16:00:48;;;;;;;5.38;0.52;;;22.70;71.70;;;;;;5077012;28;45435;-71
2023/07/05 16:03:20;;;;;;;1.05;0.60;;;22.70;71.70;;;;;;5084271;28;45389;-71
2023/07/05 16:05:48;;;;;;;4.78;0.85;;;22.70;71.60;;;;;;5085355;28;45441;-70
2023/07/05 16:08:15;;;;;;;0.85;0.60;;;22.70;71.50;;;;;;5082970;28;45711;-70
2023/07/05 16:10:42;;;;;;;1.15;0.60;;;22.70;71.40;;;;;;5081915;27;45470;-70
2023/07/05 16:13:11;;;;;;;3.78;0.77;;;22.70;71.50;;;;;;5076070;28;45285;-71
2023/07/05 16:15:39;;;;;;;3.70;0.75;;;22.80;71.60;;;;;;5084070;27;45427;-70
2023/07/05 16:18:07;;;;;;;0.82;0.60;;;22.70;71.70;;;;;;5083211;28;46576;-70
2023/07/05 16:20:36;;;;;;;1.38;0.68;;;22.70;71.80;;;;;;5081914;28;45477;-70
2023/07/05 16:23:06;;;;;;;1.65;0.68;;;22.70;71.90;;;;;;5092969;27;45352;-71
2023/07/05 16:25:32;;;;;;;1.27;0.70;;;22.70;72.10;;;;;;5089636;27;45346;-70
2023/07/05 16:27:59;;;;;;;1.67;0.80;;;22.70;72.10;;;;;;5088042;27;47272;-70
2023/07/05 16:30:26;;;;;;;1.05;0.52;;;22.70;72.20;;;;;;5083207;28;45381;-70
2023/07/05 16:32:53;;;;;;;0.93;0.60;;;22.70;73.30;;;;;;5092049;27;45372;-70
2023/07/05 16:35:20;;;;;;;1.17;0.60;;;22.70;72.40;;;;;;5084757;27;45617;-70
2023/07/05 16:37:49;;;;;;;0.55;0.43;;;22.70;72.50;;;;;;5082663;27;47259;-71
2023/07/05 16:40:18;;;;;;;3.15;0.60;;;22.70;72.60;;;;;;5082852;28;45491;-71
2023/07/05 16:42:48;;;;;;;0.70;0.50;;;22.70;73.70;;;;;;5083988;28;45435;-72
2023/07/05 16:45:16;;;;;;;1.67;0.57;;;22.70;72.80;;;;;;5082753;28;45511;-70
2023/07/05 16:47:43;;;;;;;0.95;0.57;;;22.70;72.90;;;;;;5084364;28;48656;-70
2023/07/05 16:50:12;;;;;;;1.00;0.60;;;22.70;72.90;;;;;;5083503;28;45324;-70
2023/07/05 16:52:39;;;;;;;0.70;0.50;;;22.70;73.00;;;;;;5083309;28;45377;-70
2023/07/05 16:55:07;;;;;;;1.23;0.60;;;22.70;73.10;;;;;;5089676;27;45458;-71
2023/07/05 16:57:35;;;;;;;0.80;0.60;;;22.70;73.10;;;;;;5083835;27;46073;-70
2023/07/05 17:00:03;;;;;;;2.15;0.70;;;22.70;73.30;;;;;;5077580;27;46005;-70
2023/07/05 17:02:30;;;;;;;1.02;0.65;;;22.70;73.20;;;;;;5080269;28;45406;-71
2023/07/05 17:04:57;;;;;;;1.20;0.52;;;22.70;73.30;;;;;;5083414;27;45264;-70
2023/07/05 17:07:24;;;;;;;1.50;0.77;;;22.60;73.20;;;;;;5080459;27;45342;-70
2023/07/05 17:09:50;;;;;;;0.68;0.60;;;22.70;73.40;;;;;;5080464;28;45470;-71
2023/07/05 17:12:17;;;;;;;0.68;0.50;;;22.70;73.50;;;;;;5081268;28;45433;-71
2023/07/05 17:14:45;;;;;;;1.70;0.60;;;22.60;73.40;;;;;;5077401;27;45519;-71
2023/07/05 17:17:13;;;;;;;0.82;0.40;;;22.60;73.50;;;;;;5078172;28;45373;-72
2023/07/05 17:19:39;;;;;;;0.50;0.47;;;22.70;73.60;;;;;;5081324;28;45441;-73
2023/07/05 17:22:06;;;;;;;1.05;0.60;;;22.70;73.70;;;;;;5083000;27;45572;-72
2023/07/05 17:24:33;;;;;;;0.65;0.50;;;22.70;73.60;;;;;;5080336;28;45214;-72
2023/07/05 17:27:00;;;;;;;1.10;0.60;;;22.70;73.70;;;;;;5075857;28;46764;-72
2023/07/05 17:29:27;;;;;;;0.70;0.57;;;22.70;73.80;;;;;;5076791;28;45265;-72
2023/07/05 17:31:55;;;;;;;0.93;0.43;;;22.70;73.70;;;;;;5081803;28;45398;-72
2023/07/05 17:34:22;;;;;;;0.40;0.40;;;22.60;73.60;;;;;;5081638;27;45387;-71
2023/07/05 17:36:49;;;;;;;0.63;0.40;;;22.60;73.60;;;;;;5081553;28;46693;-70
2023/07/05 17:39:17;;;;;;;1.05;0.70;;;22.60;73.60;;;;;;5082123;28;45430;-71
2023/07/05 17:41:44;;;;;;;0.50;0.40;;;22.60;73.60;;;;;;5083391;28;45277;-71
2023/07/05 17:44:11;;;;;;;0.70;0.45;;;22.60;73.50;;;;;;5080461;28;45564;-71
2023/07/05 17:46:42;;;;;;;1.00;0.60;;;22.60;73.60;;;;;;5082586;28;46629;-72
2023/07/05 17:49:11;;;;;;;0.60;0.45;;;22.60;73.50;;;;;;5078018;27;45402;-71
2023/07/05 17:51:39;;;;;;;0.40;0.30;;;22.60;73.50;;;;;;5077197;28;45426;-72
2023/07/05 17:54:07;;;;;;;0.73;0.40;;;22.70;73.60;;;;;;5078306;27;45546;-72
2023/07/05 17:56:34;;;;;;;0.75;0.50;;;22.60;73.50;;;;;;5080450;27;48977;-72
2023/07/05 17:59:01;;;;;;;0.88;0.43;;;22.60;73.50;;;;;;5075775;28;45451;-74
2023/07/05 18:01:28;;;;;;;0.60;0.50;;;22.60;73.50;;;;;;5080587;28;45538;-73
2023/07/05 18:03:55;;;;;;;0.93;0.55;;;22.60;73.50;;;;;;5083153;28;45280;-73
2023/07/05 18:06:24;;;;;;;0.50;0.40;;;22.60;73.50;;;;;;5080919;27;47365;-74
2023/07/05 18:08:50;;;;;;;0.63;0.40;;;22.60;73.50;;;;;;5081856;28;45400;-73
2023/07/05 18:11:20;;;;;;;0.35;0.30;;;22.60;73.40;;;;;;5079763;27;45535;-73
2023/07/05 18:13:48;;;;;;;0.57;0.30;;;22.60;73.50;;;;;;5083157;27;45355;-73
2023/07/05 18:16:17;;;;;;;0.90;0.60;;;22.60;73.40;;;;;;5082062;28;46618;-73
2023/07/05 18:18:44;;;;;;;0.90;0.57;;;22.60;73.50;;;;;;5083582;28;45222;-73
2023/07/05 18:21:15;;;;;;;1.25;0.50;;;22.60;73.50;;;;;;5083480;28;45287;-74
2023/07/05 18:23:43;;;;;;;0.60;0.50;;;22.60;73.50;;;;;;5088064;27;45304;-74
2023/07/05 18:26:12;;;;;;;0.50;0.22;;;22.60;73.50;;;;;;5078716;27;47802;-74
2023/07/05 18:28:39;;;;;;;2.30;0.60;;;22.70;73.50;;;;;;5083988;27;45510;-75